Victory — WDF9821 — position and weather

sailwx.info

Track history (hours):
 
Tides and Currents Weather Stations Pressure Air Temp Water Temp Dewpoint Dewpoint Depression Visibility Wind Speed Wind Dir Waves Ship Positions

Victory

More information available from US FCC via Universal Licensing System and Coast Guard Vessel Documentation Center.

Last reported at 2014-Jul-26 19:28 UTC. Time now 2014-Jul-28 12:28 UTC.
Position N 41°36' W 070°44'.

Length 15 m.

Type: Sailing vessel. MMSI: 367509170.

Date/timePositionNaut miles runAvg speedWind from/ knotsBaromVisibWave heightAir tempDewpointWater temp
2014-Jul-26 19:28N 41°36' W 070°44'4 4.7
2014-Jul-26 18:33N 41°33' W 070°47'13 5.5
2014-Jul-26 16:16N 41°26' W 071°02'17 0.3
2014-Jul-24 12:28N 41°24' W 071°24'6 6.4
2014-Jul-24 11:33N 41°20' W 071°30'7 6.6
2014-Jul-24 10:33N 41°15' W 071°36'7 6.8
2014-Jul-24 09:33N 41°10' W 071°41'7 6.6
2014-Jul-24 08:33N 41°03' W 071°44'6 6.3
2014-Jul-24 07:33N 40°58' W 071°48'6 6.3
2014-Jul-24 06:33N 40°53' W 071°54'7 6.6
2014-Jul-24 05:33N 40°48' W 071°60'7 6.8
2014-Jul-24 04:33N 40°43' W 072°05'7 7.0
2014-Jul-24 03:34N 40°38' W 072°11'8 7.5
2014-Jul-24 02:33N 40°32' W 072°18'8 7.6
2014-Jul-24 01:33N 40°27' W 072°25'8 7.7
2014-Jul-24 00:33N 40°21' W 072°31'8 7.9
2014-Jul-23 23:32N 40°14' W 072°38'8 7.8
2014-Jul-23 22:34N 40°08' W 072°44'16 7.6
2014-Jul-23 20:26N 39°55' W 072°57'8 7.8
2014-Jul-23 19:22N 39°49' W 073°03'6 7.7
2014-Jul-23 18:32N 39°44' W 073°08'59 7.2
2014-Jul-23 10:26N 38°58' W 073°55'6 7.1
2014-Jul-23 09:33N 38°53' W 074°01'7 7.0
2014-Jul-23 08:33N 38°48' W 074°07'135 7.0
2014-Jul-22 13:10N 37°07' W 076°01'  
Track history (hours):
 
Tides and Currents Weather Stations Pressure Air Temp Water Temp Dewpoint Dewpoint Depression Visibility Wind Speed Wind Dir Waves Ship Positions

Victory

More information available from US FCC via Universal Licensing System and Coast Guard Vessel Documentation Center.

Last reported at 2014-Jul-26 19:28 UTC. Time now 2014-Jul-28 12:28 UTC.
Position N 41°36' W 070°44'.

Length 15 m.

Type: Sailing vessel. MMSI: 367509170.

Date/timePositionNaut miles runAvg speedWind from/ knotsBaromVisibWave heightAir tempDewpointWater temp
2014-Jul-26 19:28N 41°36' W 070°44'4 4.7
2014-Jul-26 18:33N 41°33' W 070°47'13 5.5
2014-Jul-26 16:16N 41°26' W 071°02'17 0.3
2014-Jul-24 12:28N 41°24' W 071°24'6 6.4
2014-Jul-24 11:33N 41°20' W 071°30'7 6.6
2014-Jul-24 10:33N 41°15' W 071°36'7 6.8
2014-Jul-24 09:33N 41°10' W 071°41'7 6.6
2014-Jul-24 08:33N 41°03' W 071°44'6 6.3
2014-Jul-24 07:33N 40°58' W 071°48'6 6.3
2014-Jul-24 06:33N 40°53' W 071°54'7 6.6
2014-Jul-24 05:33N 40°48' W 071°60'7 6.8
2014-Jul-24 04:33N 40°43' W 072°05'7 7.0
2014-Jul-24 03:34N 40°38' W 072°11'8 7.5
2014-Jul-24 02:33N 40°32' W 072°18'8 7.6
2014-Jul-24 01:33N 40°27' W 072°25'8 7.7
2014-Jul-24 00:33N 40°21' W 072°31'8 7.9
2014-Jul-23 23:32N 40°14' W 072°38'8 7.8
2014-Jul-23 22:34N 40°08' W 072°44'16 7.6
2014-Jul-23 20:26N 39°55' W 072°57'8 7.8
2014-Jul-23 19:22N 39°49' W 073°03'6 7.7
2014-Jul-23 18:32N 39°44' W 073°08'59 7.2
2014-Jul-23 10:26N 38°58' W 073°55'6 7.1
2014-Jul-23 09:33N 38°53' W 074°01'7 7.0
2014-Jul-23 08:33N 38°48' W 074°07'135 7.0
2014-Jul-22 13:10N 37°07' W 076°01'  

Dump ship's entire track history